NAMI Fall Classic 5K - 10/8/2017 - Age Group Results
Position Bib # Name TIME Pace Gender Age Division
5K TOP MALES OVERALL based on Chip Elapsed time
1 118 Morris, Doug 20:24.8 6:35 M 40 5K
5K TOP FEMALES OVERALL based on Chip Elapsed time
1 123 OShields, Ashley 24:11.7 7:48 F 32 5K
5K MALE 19 AND UNDER - based on Chip Elapsed time
1 151 Scheffee, Logen 23:57.3 7:44 M 13 5K
2 161 Stevenson, Caleb 26:01.2 8:24 M 13 5K
3 30 Clemenz, Lucas 26:47.2 8:38 M 14 5K
4 594 Rodriguez, Aiden 27:21.3 8:49 M 11 5K
5 691 Cushman, Adam 28:31.9 9:12 M 12 5K
6 688 Heltzel, Hunter 28:37.1 9:14 M 13 5K
7 155 Shatowers, Garrett 30:24.4 9:48 M 17 5K
8 119 Morrison, Peter 31:38.6 10:12 M 17 5K
9 31 Clemenz, Aidan 32:10.7 10:23 M 12 5K
10 13 Bibler, Brenan 36:52.5 11:54 M 8 5K
11 63 Gilbert, Dylan 36:52.9 11:54 M 8 5K
12 82 Huff, Mark 39:12.5 12:39 M 17 5K
13 37 DeBoy, Tyler 39:31.9 12:45 M 19 5K
14 164 Studebaker, Alex 44:31.4 14:22 M 12 5K
15 134 Price, Noah 51:57.0 16:45 M 8 5K
16 73 Hastak, Ajay 58:59.5 19:02 M 14 5K
17 128 Parks, Ethan 59:09.4 19:05 M 5 5K
18 86 Jaime, Marco 1:00:00.4 19:21 M 14 5K
19 29 Clemenz, Quinn 1:02:12.5 20:04 M 16 5K
20 60 Gilbert, Grissom 1:07:25.9 21:45 M 5 5K
21 136 Pruitt, Clay 1:11:35.4 23:05 M 5 5K
5K MALE 20-29 - based on Chip Elapsed time
1 685 Schuchart, Beau 21:02.1 6:47 M 21 5K
2 713 Klein, Kyle 23:30.1 7:35 M 24 5K
3 65 Glick, Jordan 27:57.3 9:01 M 29 5K
4 693 Baer, Cody 28:20.5 9:08 M 29 5K
5 101 Lewis, Horrane 31:13.4 10:04 M 26 5K
6 183 Wiese, Andrew 38:14.2 12:20 M 27 5K
7 94 Keazer, Brian 39:01.5 12:35 M 29 5K
8 189 Worster, Nathan 42:42.6 13:46 M 26 5K
9 102 Lin, Kun 45:46.9 14:46 M 22 5K
10 156 Shreve, Mason 51:32.2 16:37 M 28 5K
11 120 Munoz, Robby 57:35.1 18:35 M 23 5K
12 68 Grider, Brad 1:01:27.0 19:49 M 27 5K
5K MALE 30-39 - based on Chip Elapsed time
1 124 O'Shields, Ian 21:41.6 6:59 M 32 5K
2 686 Gough, Danie 26:13.3 8:27 M 30 5K
3 172 Tipton, Scott 27:52.8 8:59 M 31 5K
4 53 Gaeta, Octavio 27:56.3 9:01 M 30 5K
5 167 Terry, Jason 28:22.7 9:09 M 33 5K
6 109 McKean, Matt 33:59.2 10:58 M 31 5K
7 758 Gibson, Jacob 44:05.6 14:13 M 35 5K
8 56 Gilbert, Michael 1:06:00.5 21:17 M 38 5K
9 11 Bibler, Nathan 1:06:16.9 21:23 M 33 5K
10 62 Gilbert, Troy 1:06:18.0 21:23 M 39 5K
11 757 Hopkins, Keith 1:10:30.0 22:45 M 31 5K
12 725 Pruitt, Cody 1:11:37.2 23:06 M 34 5K
5K MALE 40-49 - based on Chip Elapsed time
1 160 Stevenson, Christopher 24:08.0 7:47 M 43 5K
2 159 Stein, David 26:40.3 8:36 M 49 5K
3 104 Mabbitt, Tristan 44:05.3 14:13 M 45 5K
4 185 Wiese, David 56:28.9 18:13 M 49 5K
5 150 Scheffee, Brien 57:46.3 18:38 M 49 5K
6 636 Stedge, Jeff 1:02:02.3 20:01 M 46 5K
7 78 Horvath, David 1:02:03.6 20:01 M 48 5K
8 27 Clemenz, Brent 1:02:05.5 20:02 M 48 5K
9 132 Prather, Donald 1:04:00.7 20:39 M 47 5K
10 41 Earhart, Scott 1:04:39.2 20:51 M 49 5K
11 25 Carroll, Fabian 1:18:02.4 25:10 M 46 5K
5K MALE 50-59 - based on Chip Elapsed time
1 174 Toth, James 27:51.6 8:59 M 59 5K
2 74 Hastak, Mark 28:29.6 9:11 M 52 5K
3 49 Fields, Robert 31:13.9 10:04 M 51 5K
4 50 Van Voorst, Roger 31:24.1 10:08 M 51 5K
5 727 Branstrator, John 53:08.2 17:08 M 57 5K
6 15 Brehm, Jim 53:13.5 17:10 M 56 5K
7 110 McVay, Andy 1:02:59.4 20:19 M 57 5K
8 687 Liebbe, Stephen 1:04:22.4 20:46 M 56 5K
5K MALE 60-69 - based on Chip Elapsed time
1 93 Keazer, Doug 25:11.5 8:07 M 64 5K
2 141 Ritchey, Ken 46:47.9 15:05 M 68 5K
3 48 Feuer, Robert 46:57.6 15:09 M 66 5K
4 193 Yoki, Sam 55:52.9 18:01 M 64 5K
5 690 Warner, David 1:01:49.2 19:56 M 63 5K
6 146 Ruppert, Stephen 1:06:05.0 21:19 M 69 5K
5K MALE 70 AND OVER - based on Chip Elapsed time
1 8 Bauer, Paul 39:59.1 12:54 M 73 5K
5K MALE UNKNOWN AGE - based on Chip Elapsed time
1 692 Delach, Brad 36:05.7 11:38 M 99 5K
2 698 Fesler, John 38:14.0 12:20 M 99 5K
3 700 Runner, Unknown 39:40.0 12:48 M 99 5K
4 721 Arthur, Bill 47:59.2 15:29 M 99 5K
5 718 Harker, Kurt 52:34.1 16:57 M 99 5K
6 715 Lehto, Mark 55:32.4 17:55 M 99 5K
7 697 Runner, Unknown 58:53.9 18:59 M 99 5K
8 729 Runner, Unknown 1:17:10.4 24:54 M 99 5K
9 730 Runner, Unknown 1:17:15.3 24:55 M 99 5K
5K FEMALE 19 AND UNDER - based on Chip Elapsed time
1 12 Bibler, Mia 37:29.0 12:05 F 10 5K
2 168 Tesch, Carys 41:45.4 13:28 F 10 5K
3 191 Worster, Audrey 41:55.8 13:31 F 6 5K
4 87 Jaime, Christina 58:51.1 18:59 F 15 5K
5 69 Grider, Rylee 1:01:27.4 19:49 F 1 5K
6 64 Gilbert, Olivia 1:06:20.0 21:24 F 5 5K
7 76 Hensley, Baela 1:06:20.9 21:24 F 7 5K
8 58 Gilbert, Haven 1:07:48.6 21:52 F 10 5K
9 59 Gilbert, Ella 1:07:55.1 21:55 F 7 5K
10 169 Thomas, Adilynn 1:10:24.1 22:43 F 1 5K
11 137 Pruitt, Cadence 1:12:00.3 23:14 F 3 5K
5K FEMALE 20-29 - based on Chip Elapsed time
1 2 Abbott, Sarah 27:32.8 8:53 F 20 5K
2 84 Iacobazzi, Anna 34:05.8 10:59 F 29 5K
3 106 Martinez, Lisa 35:10.6 11:21 F 28 5K
4 139 Ramirez, Shayna 39:44.7 12:49 F 24 5K
5 190 Worster, Lauren 42:03.8 13:34 F 26 5K
6 165 Swaroop, Ananya 45:45.9 14:45 F 22 5K
7 143 Rodriguez, Azeneth 51:31.6 16:37 F 28 5K
8 20 Bryan, Dena-Marie 54:52.2 17:42 F 28 5K
9 46 Farmer, Rebecca 55:25.4 17:53 F 22 5K
10 711 Etchells, Sarah 55:26.0 17:53 F 22 5K
11 130 Peretin, Cassidy 57:34.7 18:34 F 24 5K
12 186 Wills, Stephanie 1:01:49.3 19:56 F 25 5K
13 152 Schmidt, Lauren 1:04:39.3 20:51 F 23 5K
14 114 Meeks, Jenna 1:04:40.2 20:52 F 21 5K
15 43 Elliott, Katelynn 1:10:12.7 22:39 F 21 5K
16 756 Gilbert, Elah 1:10:20.0 22:41 F 28 5K
17 177 Wadley, Jessica 1:16:35.1 24:42 F 26 5K
18 9 Bennett, Katherine 1:18:06.0 25:12 F 21 5K
19 175 Van Ness, Warren 1:18:07.8 25:12 F 22 5K
5K FEMALE 30-39 - based on Chip Elapsed time
1 710 Gibson, Rebecca 24:32.1 7:55 F 33 5K
2 181 Werntz, Gail 31:17.5 10:05 F 39 5K
3 592 Rodriguez, Katie 31:59.2 10:19 F 34 5K
4 19 Brinkley, Amy 32:25.1 10:27 F 37 5K
5 70 Hamilton, Lindsey 32:55.1 10:37 F 33 5K
6 32 Collins, Amanda 37:07.5 11:58 F 30 5K
7 75 Hensley, Melissa 37:29.7 12:05 F 35 5K
8 71 Hanau, Caroline 41:45.3 13:28 F 33 5K
9 38 Deno, Courtney 51:34.4 16:38 F 39 5K
10 77 Herring, Megan 54:52.3 17:42 F 33 5K
11 115 Mills, Jeni 57:47.0 18:38 F 38 5K
12 97 Koors, Shirley 58:54.0 19:00 F 39 5K
13 126 Parks, Megan 59:07.9 19:04 F 32 5K
14 171 Tipton, Mary 1:04:00.7 20:39 F 39 5K
15 24 Carrera, Vanessa 1:06:06.7 21:19 F 32 5K
16 61 Gilbert, Morgan 1:06:16.4 21:23 F 32 5K
17 10 Bibler, Deanna 1:06:16.4 21:23 F 34 5K
18 57 Gilbert, Abby 1:07:48.7 21:52 F 34 5K
19 135 Pruitt, Sarah 1:12:00.2 23:14 F 34 5K
20 54 Gasaway, Whitney 1:16:33.7 24:42 F 30 5K
5K FEMALE 40-49 - based on Chip Elapsed time
1 140 Riley, Donna 28:00.6 9:02 F 45 5K
2 149 Scheffee, Teresa 28:52.0 9:19 F 40 5K
3 162 Stitsworth, Angela 30:15.9 9:45 F 40 5K
4 103 Mabbitt, Stacey 44:50.9 14:28 F 46 5K
5 66 Green, Tisha 47:41.7 15:23 F 46 5K
6 133 Price, Kristy 52:21.7 16:53 F 40 5K
7 105 Mabbitt, Jesse 55:02.2 17:45 F 44 5K
8 47 Farmer, Helene 55:25.5 17:53 F 44 5K
9 85 Jaagosild, Tiina 55:29.1 17:54 F 49 5K
10 184 Wiese, Michelle 56:28.9 18:13 F 49 5K
11 28 Clemenz, Suzanne 1:02:06.7 20:02 F 45 5K
12 81 Huff, Gail 1:05:51.3 21:15 F 47 5K
13 187 Winn, Marie 1:23:28.5 26:55 F 46 5K
14 51 Frantz, Zoe 1:23:35.1 26:58 F 40 5K
5K FEMALE 50-59 - based on Chip Elapsed time
1 173 Tobias, Ellen 26:39.5 8:36 F 56 5K
2 153 scofield, veronique 29:15.7 9:26 F 53 5K
3 154 Scott-Moncrieff, Catharine 31:38.7 10:12 F 57 5K
4 52 Frerking, Dagmar 34:16.7 11:03 F 54 5K
5 163 Studebaker, Kelly 38:12.5 12:19 F 56 5K
6 42 East, Laura J 40:58.2 13:13 F 57 5K
7 712 Green Clark, Debbi 47:03.0 15:11 F 53 5K
8 604 Tenorio, Cecilia 53:06.6 17:08 F 59 5K
9 726 Branstrator, Laurel 53:12.9 17:10 F 58 5K
10 117 Moore, Sheri 57:47.8 18:38 F 54 5K
11 138 Ralph, Tracy 59:15.0 19:07 F 51 5K
12 45 Evans, Kelly 1:01:33.0 19:51 F 57 5K
13 192 Yoki, Linda 1:02:14.9 20:05 F 58 5K
14 719 Manfed, Christina 1:06:14.0 21:22 F 50 5K
15 665 Gibson, Lori 1:06:15.0 21:22 F 55 5K
16 689 White, Michelle 1:06:15.3 21:22 F 51 5K
17 157 Sichts, Pam 1:23:28.3 26:55 F 53 5K
5K FEMALE 60-69 - based on Chip Elapsed time
1 694 Atechson, Karen 33:34.7 10:50 F 60 5K
2 35 Cushman, Karen 39:05.4 12:36 F 60 5K
3 122 O'Callaghan, Patti 39:18.4 12:41 F 64 5K
4 142 Ritchey, Patty 46:42.0 15:04 F 67 5K
5 188 Winter-Evans, Reni 1:01:33.4 19:51 F 63 5K
6 17 Breur, Johanna 1:01:50.7 19:57 F 66 5K
7 179 Warner, Charlotte 1:01:50.7 19:57 F 62 5K
8 92 Keazer, Luci 1:02:14.5 20:05 F 63 5K
9 180 Weaver, Pam 1:04:26.7 20:47 F 63 5K
10 55 Gilbert, Judy 1:06:10.8 21:21 F 64 5K
11 89 Johnson, Debbie 1:06:13.5 21:22 F 63 5K
12 14 Bluemke, Toni 1:07:46.7 21:52 F 63 5K
13 176 Wadley, Jean 1:16:33.0 24:42 F 61 5K
5K FEMALE 70 AND OVER - based on Chip Elapsed time
1 44 Embry, Cordelia 39:59.2 12:54 F 72 5K
2 36 Danaher, Patty 1:06:04.3 21:19 F 84 5K
3 182 Westmoreland, Jimmie 1:10:23.3 22:42 F 80 5K
5K FEMALE UNKNOWN AGE - based on Chip Elapsed time
1 759 Fesler, Tamy 39:42.3 12:48 F 99 5K
2 720 Arthur, Eileen 47:58.8 15:28 F 99 5K
3 695 Cornell, Tina 48:35.2 15:40 F 99 5K
4 696 Johnson, Stacey 48:35.8 15:40 F 99 5K
5 699 DeLong, Heather 48:36.7 15:41 F 99 5K
6 728 Abramont, Ruth 53:12.8 17:10 F 99 5K
7 714 Lehto, Xiuran 55:29.5 17:54 F 99 5K